Pistol River, Oregon
Current Conditions -  °F | °C
As of 8:56 PM on Sunday 19 Oct 2014 (Local Time) from KBOK Reporting Station
Overcast Overcast  
Wind Chill: 62°   Ceiling: 2100
Heat Index: 62°   Visibility: 9mi
Dew Point: 56°   Wind: 9mph
Humidity: 81%   Direction: 150°SSE
Pressure: 29.82"   Gusts: NA
Location:  42.5771°N, 124.359°W
Report Text: KBOK 200356Z AUTO 15008KT 9SM BKN021 BKN025 OVC036 17/13 A2982 RMK AO2 T01660133 BKN V OVC SLP098
Loading
Personal Weather Stations






























Interactive Weather Map
Tropical Storm Tracking
New forecast layout! Learn more

10-Day Weather Forecast

Advertisements
Track Severe Weather on mobile